sensor_id;sensor_type;location;lat;lon;timestamp;temperature;humidity
37289;DHT22;23174;49.462;11.000;2023-07-31T00:01:47;18.40;99.90
37289;DHT22;23174;49.462;11.000;2023-07-31T00:03:47;18.50;99.90
37289;DHT22;23174;49.462;11.000;2023-07-31T00:05:48;18.40;99.90
37289;DHT22;23174;49.462;11.000;2023-07-31T00:07:48;18.40;99.90
37289;DHT22;23174;49.462;11.000;2023-07-31T00:09:49;18.50;99.90
37289;DHT22;23174;49.462;11.000;2023-07-31T00:11:49;18.50;99.90
37289;DHT22;23174;49.462;11.000;2023-07-31T00:13:50;18.50;99.90
37289;DHT22;23174;49.462;11.000;2023-07-31T00:15:50;18.40;99.90
37289;DHT22;23174;49.462;11.000;2023-07-31T00:17:51;18.50;99.90
37289;DHT22;23174;49.462;11.000;2023-07-31T00:19:51;18.50;99.90
37289;DHT22;23174;49.462;11.000;2023-07-31T00:21:51;18.40;99.90
37289;DHT22;23174;49.462;11.000;2023-07-31T00:23:52;18.40;99.90
37289;DHT22;23174;49.462;11.000;2023-07-31T00:25:52;18.40;99.90
37289;DHT22;23174;49.462;11.000;2023-07-31T00:27:53;18.40;99.90
37289;DHT22;23174;49.462;11.000;2023-07-31T00:29:53;18.40;99.90
37289;DHT22;23174;49.462;11.000;2023-07-31T00:31:54;18.50;99.90
37289;DHT22;23174;49.462;11.000;2023-07-31T00:33:54;18.40;99.90
37289;DHT22;23174;49.462;11.000;2023-07-31T00:35:55;18.40;99.90
37289;DHT22;23174;49.462;11.000;2023-07-31T00:37:57;18.40;99.90
37289;DHT22;23174;49.462;11.000;2023-07-31T00:39:58;18.40;99.90
37289;DHT22;23174;49.462;11.000;2023-07-31T00:41:58;18.40;99.90
37289;DHT22;23174;49.462;11.000;2023-07-31T00:43:59;18.40;99.90
37289;DHT22;23174;49.462;11.000;2023-07-31T00:46:00;18.40;99.90
37289;DHT22;23174;49.462;11.000;2023-07-31T00:48:01;18.40;99.90
37289;DHT22;23174;49.462;11.000;2023-07-31T00:50:02;18.40;99.90
37289;DHT22;23174;49.462;11.000;2023-07-31T00:52:03;18.40;99.90
37289;DHT22;23174;49.462;11.000;2023-07-31T00:54:03;18.40;99.90
37289;DHT22;23174;49.462;11.000;2023-07-31T00:56:04;18.40;99.90
37289;DHT22;23174;49.462;11.000;2023-07-31T00:58:05;18.40;99.90
37289;DHT22;23174;49.462;11.000;2023-07-31T01:00:06;18.40;99.90
37289;DHT22;23174;49.462;11.000;2023-07-31T01:02:07;18.40;99.90
37289;DHT22;23174;49.462;11.000;2023-07-31T01:04:08;18.50;99.90
37289;DHT22;23174;49.462;11.000;2023-07-31T01:06:18;18.50;99.90
37289;DHT22;23174;49.462;11.000;2023-07-31T01:08:37;18.50;99.90
37289;DHT22;23174;49.462;11.000;2023-07-31T01:10:53;18.50;99.90
37289;DHT22;23174;49.462;11.000;2023-07-31T01:12:56;18.50;99.90
37289;DHT22;23174;49.462;11.000;2023-07-31T01:17:03;18.50;99.90
37289;DHT22;23174;49.462;11.000;2023-07-31T01:19:04;18.50;99.90
37289;DHT22;23174;49.462;11.000;2023-07-31T01:24:19;18.60;99.90
37289;DHT22;23174;49.462;11.000;2023-07-31T01:26:23;18.60;99.90
37289;DHT22;23174;49.462;11.000;2023-07-31T01:28:44;18.60;99.90
37289;DHT22;23174;49.462;11.000;2023-07-31T01:30:47;18.60;99.90
37289;DHT22;23174;49.462;11.000;2023-07-31T01:32:48;18.60;99.90
37289;DHT22;23174;49.462;11.000;2023-07-31T01:34:50;18.60;99.90
37289;DHT22;23174;49.462;11.000;2023-07-31T01:36:51;18.60;99.90
37289;DHT22;23174;49.462;11.000;2023-07-31T01:38:52;18.70;99.90
37289;DHT22;23174;49.462;11.000;2023-07-31T01:40:53;18.60;99.90
37289;DHT22;23174;49.462;11.000;2023-07-31T01:42:53;18.70;99.90
37289;DHT22;23174;49.462;11.000;2023-07-31T01:44:54;18.60;99.90
37289;DHT22;23174;49.462;11.000;2023-07-31T01:46:54;18.60;99.90
37289;DHT22;23174;49.462;11.000;2023-07-31T01:48:55;18.60;99.90
37289;DHT22;23174;49.462;11.000;2023-07-31T01:50:55;18.60;99.90
37289;DHT22;23174;49.462;11.000;2023-07-31T01:52:56;18.60;99.90
37289;DHT22;23174;49.462;11.000;2023-07-31T01:54:56;18.60;99.90
37289;DHT22;23174;49.462;11.000;2023-07-31T01:56:57;18.60;99.90
37289;DHT22;23174;49.462;11.000;2023-07-31T01:58:57;18.60;99.90
37289;DHT22;23174;49.462;11.000;2023-07-31T02:00:58;18.60;99.90
37289;DHT22;23174;49.462;11.000;2023-07-31T02:02:59;18.70;99.90
37289;DHT22;23174;49.462;11.000;2023-07-31T02:05:00;18.60;99.90
37289;DHT22;23174;49.462;11.000;2023-07-31T02:07:00;18.70;99.90
37289;DHT22;23174;49.462;11.000;2023-07-31T02:09:01;18.70;99.90
37289;DHT22;23174;49.462;11.000;2023-07-31T02:11:01;18.70;99.90
37289;DHT22;23174;49.462;11.000;2023-07-31T02:13:02;18.60;99.90
37289;DHT22;23174;49.462;11.000;2023-07-31T02:15:04;18.70;99.90
37289;DHT22;23174;49.462;11.000;2023-07-31T02:17:05;18.60;99.90
37289;DHT22;23174;49.462;11.000;2023-07-31T02:19:05;18.60;99.90
37289;DHT22;23174;49.462;11.000;2023-07-31T02:21:06;18.60;99.90
37289;DHT22;23174;49.462;11.000;2023-07-31T02:23:06;18.60;99.90
37289;DHT22;23174;49.462;11.000;2023-07-31T02:25:07;18.60;99.90
37289;DHT22;23174;49.462;11.000;2023-07-31T02:27:08;18.60;99.90
37289;DHT22;23174;49.462;11.000;2023-07-31T02:29:08;18.60;99.90
37289;DHT22;23174;49.462;11.000;2023-07-31T02:31:09;18.50;99.90
37289;DHT22;23174;49.462;11.000;2023-07-31T02:33:09;18.50;99.90
37289;DHT22;23174;49.462;11.000;2023-07-31T02:35:10;18.50;99.90
37289;DHT22;23174;49.462;11.000;2023-07-31T02:37:11;18.50;99.90
37289;DHT22;23174;49.462;11.000;2023-07-31T02:39:12;18.50;99.90
37289;DHT22;23174;49.462;11.000;2023-07-31T02:41:12;18.60;99.90
37289;DHT22;23174;49.462;11.000;2023-07-31T02:43:13;18.50;99.90
37289;DHT22;23174;49.462;11.000;2023-07-31T02:45:13;18.50;99.90
37289;DHT22;23174;49.462;11.000;2023-07-31T02:47:14;18.60;99.90
37289;DHT22;23174;49.462;11.000;2023-07-31T02:49:14;18.50;99.90
37289;DHT22;23174;49.462;11.000;2023-07-31T02:51:15;18.60;99.90
37289;DHT22;23174;49.462;11.000;2023-07-31T02:53:15;18.60;99.90
37289;DHT22;23174;49.462;11.000;2023-07-31T02:55:16;18.60;99.90
37289;DHT22;23174;49.462;11.000;2023-07-31T02:57:16;18.70;99.90
37289;DHT22;23174;49.462;11.000;2023-07-31T02:59:17;18.60;99.90
37289;DHT22;23174;49.462;11.000;2023-07-31T03:01:18;18.60;99.90
37289;DHT22;23174;49.462;11.000;2023-07-31T03:03:19;18.60;99.90
37289;DHT22;23174;49.462;11.000;2023-07-31T03:05:19;18.60;99.90
37289;DHT22;23174;49.462;11.000;2023-07-31T03:07:20;18.60;99.90
37289;DHT22;23174;49.462;11.000;2023-07-31T03:09:20;18.60;99.90
37289;DHT22;23174;49.462;11.000;2023-07-31T03:11:21;18.60;99.90
37289;DHT22;23174;49.462;11.000;2023-07-31T03:13:21;18.60;99.90
37289;DHT22;23174;49.462;11.000;2023-07-31T03:15:22;18.60;99.90
37289;DHT22;23174;49.462;11.000;2023-07-31T03:17:22;18.50;99.90
37289;DHT22;23174;49.462;11.000;2023-07-31T03:19:23;18.60;99.90
37289;DHT22;23174;49.462;11.000;2023-07-31T03:21:23;18.60;99.90
37289;DHT22;23174;49.462;11.000;2023-07-31T03:23:24;18.60;99.90
37289;DHT22;23174;49.462;11.000;2023-07-31T03:25:25;18.60;99.90
37289;DHT22;23174;49.462;11.000;2023-07-31T03:27:26;18.60;99.90
37289;DHT22;23174;49.462;11.000;2023-07-31T03:29:26;18.60;99.90
37289;DHT22;23174;49.462;11.000;2023-07-31T03:31:27;18.60;99.90
37289;DHT22;23174;49.462;11.000;2023-07-31T03:33:27;18.60;99.90
37289;DHT22;23174;49.462;11.000;2023-07-31T03:35:28;18.60;99.90
37289;DHT22;23174;49.462;11.000;2023-07-31T03:37:28;18.60;99.90
37289;DHT22;23174;49.462;11.000;2023-07-31T03:39:29;18.60;99.90
37289;DHT22;23174;49.462;11.000;2023-07-31T03:41:29;18.50;99.90
37289;DHT22;23174;49.462;11.000;2023-07-31T03:43:30;18.50;99.90
37289;DHT22;23174;49.462;11.000;2023-07-31T03:45:31;18.50;99.90
37289;DHT22;23174;49.462;11.000;2023-07-31T03:47:31;18.50;99.90
37289;DHT22;23174;49.462;11.000;2023-07-31T03:49:32;18.50;99.90
37289;DHT22;23174;49.462;11.000;2023-07-31T03:51:32;18.50;99.90
37289;DHT22;23174;49.462;11.000;2023-07-31T03:53:32;18.40;99.90
37289;DHT22;23174;49.462;11.000;2023-07-31T03:55:33;18.40;99.90
37289;DHT22;23174;49.462;11.000;2023-07-31T03:57:33;18.40;99.90
37289;DHT22;23174;49.462;11.000;2023-07-31T03:59:34;18.40;99.90
37289;DHT22;23174;49.462;11.000;2023-07-31T04:01:34;18.40;99.90
37289;DHT22;23174;49.462;11.000;2023-07-31T04:03:35;18.40;99.90
37289;DHT22;23174;49.462;11.000;2023-07-31T04:05:38;18.30;99.90
37289;DHT22;23174;49.462;11.000;2023-07-31T04:07:39;18.00;99.90
37289;DHT22;23174;49.462;11.000;2023-07-31T04:09:39;17.90;99.90
37289;DHT22;23174;49.462;11.000;2023-07-31T04:11:40;17.90;99.90
37289;DHT22;23174;49.462;11.000;2023-07-31T04:13:40;17.90;99.90
37289;DHT22;23174;49.462;11.000;2023-07-31T04:15:41;17.90;99.90
37289;DHT22;23174;49.462;11.000;2023-07-31T04:17:42;18.00;99.90
37289;DHT22;23174;49.462;11.000;2023-07-31T04:19:42;17.90;99.90
37289;DHT22;23174;49.462;11.000;2023-07-31T04:21:43;17.90;99.90
37289;DHT22;23174;49.462;11.000;2023-07-31T04:23:43;18.00;99.90
37289;DHT22;23174;49.462;11.000;2023-07-31T04:25:44;17.90;99.90
37289;DHT22;23174;49.462;11.000;2023-07-31T04:27:44;17.80;99.90
37289;DHT22;23174;49.462;11.000;2023-07-31T04:29:45;17.80;99.90
37289;DHT22;23174;49.462;11.000;2023-07-31T04:31:48;17.80;99.90
37289;DHT22;23174;49.462;11.000;2023-07-31T04:33:48;17.80;99.90
37289;DHT22;23174;49.462;11.000;2023-07-31T04:35:53;17.80;99.90
37289;DHT22;23174;49.462;11.000;2023-07-31T04:37:53;17.80;99.90
37289;DHT22;23174;49.462;11.000;2023-07-31T04:39:54;17.80;99.90
37289;DHT22;23174;49.462;11.000;2023-07-31T04:41:54;17.80;99.90
37289;DHT22;23174;49.462;11.000;2023-07-31T04:43:55;17.80;99.90
37289;DHT22;23174;49.462;11.000;2023-07-31T04:45:55;17.90;99.90
37289;DHT22;23174;49.462;11.000;2023-07-31T04:47:56;17.80;99.90
37289;DHT22;23174;49.462;11.000;2023-07-31T04:49:56;17.80;99.90
37289;DHT22;23174;49.462;11.000;2023-07-31T04:51:57;17.90;99.90
37289;DHT22;23174;49.462;11.000;2023-07-31T04:53:57;17.90;99.90
37289;DHT22;23174;49.462;11.000;2023-07-31T04:55:58;18.00;99.90
37289;DHT22;23174;49.462;11.000;2023-07-31T04:57:59;17.90;99.90
37289;DHT22;23174;49.462;11.000;2023-07-31T04:59:59;18.00;99.90
37289;DHT22;23174;49.462;11.000;2023-07-31T05:02:00;18.00;99.90
37289;DHT22;23174;49.462;11.000;2023-07-31T05:04:00;18.10;99.90
37289;DHT22;23174;49.462;11.000;2023-07-31T05:06:01;18.10;99.90
37289;DHT22;23174;49.462;11.000;2023-07-31T05:08:01;18.10;99.90
37289;DHT22;23174;49.462;11.000;2023-07-31T05:10:02;18.10;99.90
37289;DHT22;23174;49.462;11.000;2023-07-31T05:12:04;18.10;99.90
37289;DHT22;23174;49.462;11.000;2023-07-31T05:14:05;18.10;99.90
37289;DHT22;23174;49.462;11.000;2023-07-31T05:16:05;18.20;99.90
37289;DHT22;23174;49.462;11.000;2023-07-31T05:18:06;18.20;99.90
37289;DHT22;23174;49.462;11.000;2023-07-31T05:20:07;18.10;99.90
37289;DHT22;23174;49.462;11.000;2023-07-31T05:22:07;18.20;99.90
37289;DHT22;23174;49.462;11.000;2023-07-31T05:24:08;18.10;99.90
37289;DHT22;23174;49.462;11.000;2023-07-31T05:26:08;18.10;99.90
37289;DHT22;23174;49.462;11.000;2023-07-31T05:28:12;18.10;99.90
37289;DHT22;23174;49.462;11.000;2023-07-31T05:30:13;18.10;99.90
37289;DHT22;23174;49.462;11.000;2023-07-31T05:32:13;18.10;99.90
37289;DHT22;23174;49.462;11.000;2023-07-31T05:34:14;18.10;99.90
37289;DHT22;23174;49.462;11.000;2023-07-31T05:36:14;18.10;99.90
37289;DHT22;23174;49.462;11.000;2023-07-31T05:38:15;18.20;99.90
37289;DHT22;23174;49.462;11.000;2023-07-31T05:40:15;18.30;99.90
37289;DHT22;23174;49.462;11.000;2023-07-31T05:42:16;18.20;99.90
37289;DHT22;23174;49.462;11.000;2023-07-31T05:44:16;18.30;99.90
37289;DHT22;23174;49.462;11.000;2023-07-31T05:46:17;18.30;99.90
37289;DHT22;23174;49.462;11.000;2023-07-31T05:48:17;18.30;99.90
37289;DHT22;23174;49.462;11.000;2023-07-31T05:50:18;18.30;99.90
37289;DHT22;23174;49.462;11.000;2023-07-31T05:52:19;18.40;99.90
37289;DHT22;23174;49.462;11.000;2023-07-31T05:54:19;18.50;99.90
37289;DHT22;23174;49.462;11.000;2023-07-31T05:56:20;18.50;99.90
37289;DHT22;23174;49.462;11.000;2023-07-31T05:58:21;18.50;99.90
37289;DHT22;23174;49.462;11.000;2023-07-31T06:00:21;18.50;99.90
37289;DHT22;23174;49.462;11.000;2023-07-31T06:02:22;18.60;99.90
37289;DHT22;23174;49.462;11.000;2023-07-31T06:04:23;18.50;99.90
37289;DHT22;23174;49.462;11.000;2023-07-31T06:06:25;18.50;99.90
37289;DHT22;23174;49.462;11.000;2023-07-31T06:08:26;18.60;99.90
37289;DHT22;23174;49.462;11.000;2023-07-31T06:10:26;18.60;99.90
37289;DHT22;23174;49.462;11.000;2023-07-31T06:12:27;18.60;99.90
37289;DHT22;23174;49.462;11.000;2023-07-31T06:14:27;18.70;99.90
37289;DHT22;23174;49.462;11.000;2023-07-31T06:16:28;18.70;99.90
37289;DHT22;23174;49.462;11.000;2023-07-31T06:18:28;18.70;99.90
37289;DHT22;23174;49.462;11.000;2023-07-31T06:20:29;18.80;99.90
37289;DHT22;23174;49.462;11.000;2023-07-31T06:22:29;18.80;99.90
37289;DHT22;23174;49.462;11.000;2023-07-31T06:24:30;18.80;99.90
37289;DHT22;23174;49.462;11.000;2023-07-31T06:26:30;18.90;99.90
37289;DHT22;23174;49.462;11.000;2023-07-31T06:28:31;18.90;99.90
37289;DHT22;23174;49.462;11.000;2023-07-31T06:30:32;19.00;99.90
37289;DHT22;23174;49.462;11.000;2023-07-31T06:32:32;19.00;99.90
37289;DHT22;23174;49.462;11.000;2023-07-31T06:34:33;19.10;99.90
37289;DHT22;23174;49.462;11.000;2023-07-31T06:36:33;19.10;99.90
37289;DHT22;23174;49.462;11.000;2023-07-31T06:38:34;19.10;99.90
37289;DHT22;23174;49.462;11.000;2023-07-31T06:40:34;19.20;99.90
37289;DHT22;23174;49.462;11.000;2023-07-31T06:42:35;19.30;99.90
37289;DHT22;23174;49.462;11.000;2023-07-31T06:44:36;19.20;99.90
37289;DHT22;23174;49.462;11.000;2023-07-31T06:46:36;19.30;99.90
37289;DHT22;23174;49.462;11.000;2023-07-31T06:48:37;19.30;99.90
37289;DHT22;23174;49.462;11.000;2023-07-31T06:50:37;19.20;99.90
37289;DHT22;23174;49.462;11.000;2023-07-31T06:52:38;19.30;99.90
37289;DHT22;23174;49.462;11.000;2023-07-31T06:54:38;19.40;99.90
37289;DHT22;23174;49.462;11.000;2023-07-31T06:56:39;19.40;99.90
37289;DHT22;23174;49.462;11.000;2023-07-31T06:58:40;19.50;99.90
37289;DHT22;23174;49.462;11.000;2023-07-31T07:00:40;19.40;99.90
37289;DHT22;23174;49.462;11.000;2023-07-31T07:02:41;19.50;99.90
37289;DHT22;23174;49.462;11.000;2023-07-31T07:04:41;19.50;99.90
37289;DHT22;23174;49.462;11.000;2023-07-31T07:06:42;19.70;99.90
37289;DHT22;23174;49.462;11.000;2023-07-31T07:08:42;19.70;99.90
37289;DHT22;23174;49.462;11.000;2023-07-31T07:10:43;19.80;99.90
37289;DHT22;23174;49.462;11.000;2023-07-31T07:12:43;19.90;99.90
37289;DHT22;23174;49.462;11.000;2023-07-31T07:14:43;19.90;99.90
37289;DHT22;23174;49.462;11.000;2023-07-31T07:16:51;20.00;99.90
37289;DHT22;23174;49.462;11.000;2023-07-31T07:18:51;20.00;99.90
37289;DHT22;23174;49.462;11.000;2023-07-31T07:20:53;20.10;99.90
37289;DHT22;23174;49.462;11.000;2023-07-31T07:22:54;20.10;99.90
37289;DHT22;23174;49.462;11.000;2023-07-31T07:24:54;20.00;99.90
37289;DHT22;23174;49.462;11.000;2023-07-31T07:26:55;20.00;99.90
37289;DHT22;23174;49.462;11.000;2023-07-31T07:28:55;20.10;99.90
37289;DHT22;23174;49.462;11.000;2023-07-31T07:30:56;20.00;99.90
37289;DHT22;23174;49.462;11.000;2023-07-31T07:32:56;20.00;99.90
37289;DHT22;23174;49.462;11.000;2023-07-31T07:34:57;20.00;99.90
37289;DHT22;23174;49.462;11.000;2023-07-31T07:37:00;20.00;99.90
37289;DHT22;23174;49.462;11.000;2023-07-31T07:39:01;20.00;99.90
37289;DHT22;23174;49.462;11.000;2023-07-31T07:41:01;20.00;99.90
37289;DHT22;23174;49.462;11.000;2023-07-31T07:43:02;20.00;99.90
37289;DHT22;23174;49.462;11.000;2023-07-31T07:45:03;20.10;99.90
37289;DHT22;23174;49.462;11.000;2023-07-31T07:47:03;20.00;99.90
37289;DHT22;23174;49.462;11.000;2023-07-31T07:49:06;20.00;99.90
37289;DHT22;23174;49.462;11.000;2023-07-31T07:51:07;20.00;99.90
37289;DHT22;23174;49.462;11.000;2023-07-31T07:53:07;20.00;99.90
37289;DHT22;23174;49.462;11.000;2023-07-31T07:55:08;20.00;99.90
37289;DHT22;23174;49.462;11.000;2023-07-31T07:57:08;20.00;99.90
37289;DHT22;23174;49.462;11.000;2023-07-31T07:59:09;19.90;99.90
37289;DHT22;23174;49.462;11.000;2023-07-31T08:01:09;20.00;99.90
37289;DHT22;23174;49.462;11.000;2023-07-31T08:03:10;20.10;99.90
37289;DHT22;23174;49.462;11.000;2023-07-31T08:05:10;20.10;99.90
37289;DHT22;23174;49.462;11.000;2023-07-31T08:07:11;20.10;99.90
37289;DHT22;23174;49.462;11.000;2023-07-31T08:09:12;20.20;99.90
37289;DHT22;23174;49.462;11.000;2023-07-31T08:11:13;20.10;99.90
37289;DHT22;23174;49.462;11.000;2023-07-31T08:13:13;20.20;99.90
37289;DHT22;23174;49.462;11.000;2023-07-31T08:15:14;20.20;99.90
37289;DHT22;23174;49.462;11.000;2023-07-31T08:17:15;20.30;99.90
37289;DHT22;23174;49.462;11.000;2023-07-31T08:19:15;20.40;99.90
37289;DHT22;23174;49.462;11.000;2023-07-31T08:21:16;20.40;99.90
37289;DHT22;23174;49.462;11.000;2023-07-31T08:23:16;20.50;99.90
37289;DHT22;23174;49.462;11.000;2023-07-31T08:25:17;20.50;99.90
37289;DHT22;23174;49.462;11.000;2023-07-31T08:27:17;20.50;99.90
37289;DHT22;23174;49.462;11.000;2023-07-31T08:29:18;20.60;99.90
37289;DHT22;23174;49.462;11.000;2023-07-31T08:31:19;20.80;99.90
37289;DHT22;23174;49.462;11.000;2023-07-31T08:33:19;20.70;99.90
37289;DHT22;23174;49.462;11.000;2023-07-31T08:35:20;20.70;99.90
37289;DHT22;23174;49.462;11.000;2023-07-31T08:37:20;20.70;99.90
37289;DHT22;23174;49.462;11.000;2023-07-31T08:39:21;20.80;99.90
37289;DHT22;23174;49.462;11.000;2023-07-31T08:41:21;20.70;99.90
37289;DHT22;23174;49.462;11.000;2023-07-31T08:43:24;20.80;99.90
37289;DHT22;23174;49.462;11.000;2023-07-31T08:45:25;20.80;99.90
37289;DHT22;23174;49.462;11.000;2023-07-31T08:47:26;21.00;99.90
37289;DHT22;23174;49.462;11.000;2023-07-31T08:49:28;21.00;99.90
37289;DHT22;23174;49.462;11.000;2023-07-31T08:51:30;21.00;99.90
37289;DHT22;23174;49.462;11.000;2023-07-31T08:53:30;21.00;99.90
37289;DHT22;23174;49.462;11.000;2023-07-31T08:55:31;21.10;99.90
37289;DHT22;23174;49.462;11.000;2023-07-31T08:57:35;21.00;99.90
37289;DHT22;23174;49.462;11.000;2023-07-31T08:59:35;21.00;99.90
37289;DHT22;23174;49.462;11.000;2023-07-31T09:01:42;20.90;99.90
37289;DHT22;23174;49.462;11.000;2023-07-31T09:03:44;21.10;99.90
37289;DHT22;23174;49.462;11.000;2023-07-31T09:05:46;21.30;99.90
37289;DHT22;23174;49.462;11.000;2023-07-31T09:07:47;21.50;99.90
37289;DHT22;23174;49.462;11.000;2023-07-31T09:09:48;21.40;99.90
37289;DHT22;23174;49.462;11.000;2023-07-31T09:11:49;21.20;99.90
37289;DHT22;23174;49.462;11.000;2023-07-31T09:13:50;21.50;99.90
37289;DHT22;23174;49.462;11.000;2023-07-31T09:15:52;21.60;99.90
37289;DHT22;23174;49.462;11.000;2023-07-31T09:18:00;21.40;99.90
37289;DHT22;23174;49.462;11.000;2023-07-31T09:20:15;21.50;99.90
37289;DHT22;23174;49.462;11.000;2023-07-31T09:22:16;21.60;99.90
37289;DHT22;23174;49.462;11.000;2023-07-31T09:24:25;21.60;99.90
37289;DHT22;23174;49.462;11.000;2023-07-31T09:26:31;21.60;99.90
37289;DHT22;23174;49.462;11.000;2023-07-31T09:28:32;21.60;99.90
37289;DHT22;23174;49.462;11.000;2023-07-31T09:30:49;21.60;99.90
37289;DHT22;23174;49.462;11.000;2023-07-31T09:32:52;21.50;99.90
37289;DHT22;23174;49.462;11.000;2023-07-31T09:35:00;21.40;99.90
37289;DHT22;23174;49.462;11.000;2023-07-31T09:37:01;21.50;99.90
37289;DHT22;23174;49.462;11.000;2023-07-31T09:39:03;21.60;99.90
37289;DHT22;23174;49.462;11.000;2023-07-31T09:41:05;21.60;99.90
37289;DHT22;23174;49.462;11.000;2023-07-31T09:43:10;21.80;99.90
37289;DHT22;23174;49.462;11.000;2023-07-31T09:45:11;21.70;99.90
37289;DHT22;23174;49.462;11.000;2023-07-31T09:47:24;21.80;99.90
37289;DHT22;23174;49.462;11.000;2023-07-31T09:49:25;21.80;99.90
37289;DHT22;23174;49.462;11.000;2023-07-31T09:51:28;21.70;99.90
37289;DHT22;23174;49.462;11.000;2023-07-31T09:53:31;21.80;99.90
37289;DHT22;23174;49.462;11.000;2023-07-31T09:55:31;21.70;99.90
37289;DHT22;23174;49.462;11.000;2023-07-31T09:57:33;21.70;99.90
37289;DHT22;23174;49.462;11.000;2023-07-31T09:59:34;21.60;99.90
37289;DHT22;23174;49.462;11.000;2023-07-31T10:01:35;21.50;99.90
37289;DHT22;23174;49.462;11.000;2023-07-31T10:03:37;21.40;99.90
37289;DHT22;23174;49.462;11.000;2023-07-31T10:05:42;21.50;99.90
37289;DHT22;23174;49.462;11.000;2023-07-31T10:07:54;21.60;99.90
37289;DHT22;23174;49.462;11.000;2023-07-31T10:09:55;21.70;99.90
37289;DHT22;23174;49.462;11.000;2023-07-31T10:12:02;21.70;99.90
37289;DHT22;23174;49.462;11.000;2023-07-31T10:14:07;21.70;99.90
37289;DHT22;23174;49.462;11.000;2023-07-31T10:16:07;21.70;99.90
37289;DHT22;23174;49.462;11.000;2023-07-31T10:18:08;21.70;99.90
37289;DHT22;23174;49.462;11.000;2023-07-31T10:20:09;21.60;99.90
37289;DHT22;23174;49.462;11.000;2023-07-31T10:22:11;21.60;99.90
37289;DHT22;23174;49.462;11.000;2023-07-31T10:24:12;21.70;99.90
37289;DHT22;23174;49.462;11.000;2023-07-31T10:26:14;21.70;99.90
37289;DHT22;23174;49.462;11.000;2023-07-31T10:28:15;21.70;99.90
37289;DHT22;23174;49.462;11.000;2023-07-31T10:30:17;21.70;99.90
37289;DHT22;23174;49.462;11.000;2023-07-31T10:32:20;21.70;99.90
37289;DHT22;23174;49.462;11.000;2023-07-31T10:34:21;22.00;99.90
37289;DHT22;23174;49.462;11.000;2023-07-31T10:36:21;22.00;99.90
37289;DHT22;23174;49.462;11.000;2023-07-31T10:38:23;22.10;99.90
37289;DHT22;23174;49.462;11.000;2023-07-31T10:40:26;22.20;99.90
37289;DHT22;23174;49.462;11.000;2023-07-31T10:42:30;22.20;99.90
37289;DHT22;23174;49.462;11.000;2023-07-31T10:44:31;22.10;99.90
37289;DHT22;23174;49.462;11.000;2023-07-31T10:46:32;22.10;99.90
37289;DHT22;23174;49.462;11.000;2023-07-31T10:48:34;22.30;99.90
37289;DHT22;23174;49.462;11.000;2023-07-31T10:50:38;22.30;99.90
37289;DHT22;23174;49.462;11.000;2023-07-31T10:52:50;22.20;99.90
37289;DHT22;23174;49.462;11.000;2023-07-31T10:55:23;22.40;99.90
37289;DHT22;23174;49.462;11.000;2023-07-31T10:57:23;22.50;99.90
37289;DHT22;23174;49.462;11.000;2023-07-31T10:59:34;22.60;99.90
37289;DHT22;23174;49.462;11.000;2023-07-31T11:01:54;22.60;99.90
37289;DHT22;23174;49.462;11.000;2023-07-31T11:03:57;22.60;99.90
37289;DHT22;23174;49.462;11.000;2023-07-31T11:06:01;22.30;99.90
37289;DHT22;23174;49.462;11.000;2023-07-31T11:08:52;22.20;99.90
37289;DHT22;23174;49.462;11.000;2023-07-31T11:10:33;22.20;99.90
37289;DHT22;23174;49.462;11.000;2023-07-31T11:12:34;22.20;99.90
37289;DHT22;23174;49.462;11.000;2023-07-31T11:14:35;22.30;99.90
37289;DHT22;23174;49.462;11.000;2023-07-31T11:16:35;22.40;99.90
37289;DHT22;23174;49.462;11.000;2023-07-31T11:18:38;22.40;99.90
37289;DHT22;23174;49.462;11.000;2023-07-31T11:20:39;22.40;99.90
37289;DHT22;23174;49.462;11.000;2023-07-31T11:22:41;22.30;99.90
37289;DHT22;23174;49.462;11.000;2023-07-31T11:24:42;22.40;99.90
37289;DHT22;23174;49.462;11.000;2023-07-31T11:26:52;22.20;99.90
37289;DHT22;23174;49.462;11.000;2023-07-31T11:28:52;22.20;99.90
37289;DHT22;23174;49.462;11.000;2023-07-31T11:30:55;22.20;99.90
37289;DHT22;23174;49.462;11.000;2023-07-31T11:32:56;22.20;99.90
37289;DHT22;23174;49.462;11.000;2023-07-31T11:34:56;22.10;99.90
37289;DHT22;23174;49.462;11.000;2023-07-31T11:36:57;22.10;99.90
37289;DHT22;23174;49.462;11.000;2023-07-31T11:39:05;22.10;99.90
37289;DHT22;23174;49.462;11.000;2023-07-31T11:41:06;22.10;99.90
37289;DHT22;23174;49.462;11.000;2023-07-31T11:43:07;22.00;99.90
37289;DHT22;23174;49.462;11.000;2023-07-31T11:45:08;22.10;99.90
37289;DHT22;23174;49.462;11.000;2023-07-31T11:47:09;22.20;99.90
37289;DHT22;23174;49.462;11.000;2023-07-31T11:49:10;22.20;99.90
37289;DHT22;23174;49.462;11.000;2023-07-31T11:51:12;22.30;99.90
37289;DHT22;23174;49.462;11.000;2023-07-31T11:53:13;22.30;99.90
37289;DHT22;23174;49.462;11.000;2023-07-31T11:55:15;22.20;99.90
37289;DHT22;23174;49.462;11.000;2023-07-31T11:57:16;22.20;99.90
37289;DHT22;23174;49.462;11.000;2023-07-31T11:59:17;22.20;99.90
37289;DHT22;23174;49.462;11.000;2023-07-31T12:01:21;22.20;99.90
37289;DHT22;23174;49.462;11.000;2023-07-31T12:03:22;22.30;99.90
37289;DHT22;23174;49.462;11.000;2023-07-31T12:05:23;22.30;99.90
37289;DHT22;23174;49.462;11.000;2023-07-31T12:07:24;22.40;99.90
37289;DHT22;23174;49.462;11.000;2023-07-31T12:09:25;22.40;99.90
37289;DHT22;23174;49.462;11.000;2023-07-31T12:11:26;22.40;99.90
37289;DHT22;23174;49.462;11.000;2023-07-31T12:13:27;22.30;99.90
37289;DHT22;23174;49.462;11.000;2023-07-31T12:15:38;22.30;99.90
37289;DHT22;23174;49.462;11.000;2023-07-31T12:17:39;22.30;99.90
37289;DHT22;23174;49.462;11.000;2023-07-31T12:19:40;22.30;99.90
37289;DHT22;23174;49.462;11.000;2023-07-31T12:21:40;22.40;99.90
37289;DHT22;23174;49.462;11.000;2023-07-31T12:23:41;22.50;99.90
37289;DHT22;23174;49.462;11.000;2023-07-31T12:25:42;22.40;99.90
37289;DHT22;23174;49.462;11.000;2023-07-31T12:27:46;22.30;99.90
37289;DHT22;23174;49.462;11.000;2023-07-31T12:29:46;22.40;99.90
37289;DHT22;23174;49.462;11.000;2023-07-31T12:31:47;22.30;99.90
37289;DHT22;23174;49.462;11.000;2023-07-31T12:33:49;22.30;99.90
37289;DHT22;23174;49.462;11.000;2023-07-31T12:35:50;22.40;99.90
37289;DHT22;23174;49.462;11.000;2023-07-31T12:37:50;22.40;99.90
37289;DHT22;23174;49.462;11.000;2023-07-31T12:39:51;22.30;99.90
37289;DHT22;23174;49.462;11.000;2023-07-31T12:41:51;22.30;99.90